createdAt,value
2023-03-18T00:00:48.873Z,2.75
2023-03-18T00:03:33.179Z,2.25
2023-03-18T00:06:18.373Z,2.80
2023-03-18T00:09:01.093Z,2.53
2023-03-18T00:11:43.778Z,2.65
2023-03-18T00:14:26.634Z,2.80
2023-03-18T00:17:09.575Z,2.63
2023-03-18T00:19:53.872Z,2.70
2023-03-18T00:22:37.585Z,2.45
2023-03-18T00:25:20.203Z,2.40
2023-03-18T00:28:02.983Z,2.33
2023-03-18T00:30:46.169Z,2.58
2023-03-18T00:33:29.433Z,2.10
2023-03-18T00:36:14.633Z,2.15
2023-03-18T00:38:58.303Z,2.25
2023-03-18T00:41:42.353Z,2.20
2023-03-18T00:44:26.186Z,2.40
2023-03-18T00:47:08.903Z,2.30
2023-03-18T00:49:51.605Z,2.20
2023-03-18T00:52:35.659Z,2.15
2023-03-18T00:55:18.424Z,1.95
2023-03-18T00:58:01.074Z,1.77
2023-03-18T01:00:43.876Z,1.95
2023-03-18T01:03:26.570Z,2.13
2023-03-18T01:06:10.194Z,1.85
2023-03-18T01:08:54.130Z,2.13
2023-03-18T01:11:36.692Z,1.98
2023-03-18T01:14:19.684Z,2.03
2023-03-18T01:17:02.267Z,2.10
2023-03-18T01:19:45.015Z,2.20
2023-03-18T01:22:27.650Z,2.00
2023-03-18T01:25:12.408Z,2.10
2023-03-18T01:27:55.640Z,2.00
2023-03-18T01:30:38.367Z,1.88
2023-03-18T01:33:22.009Z,2.17
2023-03-18T01:36:05.338Z,2.17
2023-03-18T01:38:48.947Z,1.95
2023-03-18T01:41:33.083Z,1.90
2023-03-18T01:44:17.448Z,1.65
2023-03-18T01:47:02.087Z,1.80
2023-03-18T01:49:47.600Z,1.70
2023-03-18T01:52:32.138Z,2.00
2023-03-18T01:55:17.195Z,1.90
2023-03-18T01:58:02.642Z,1.88
2023-03-18T02:00:47.976Z,1.70
2023-03-18T02:03:30.669Z,2.30
2023-03-18T02:06:13.645Z,1.65
2023-03-18T02:08:57.636Z,1.67
2023-03-18T02:11:41.758Z,1.60
2023-03-18T02:14:26.821Z,1.92
2023-03-18T02:17:11.429Z,2.15
2023-03-18T02:20:01.197Z,1.90
2023-03-18T02:22:45.530Z,2.10
2023-03-18T02:25:34.671Z,2.10
2023-03-18T02:28:20.144Z,1.90
2023-03-18T02:31:04.382Z,1.80
2023-03-18T02:33:48.028Z,1.88
2023-03-18T02:36:31.625Z,2.20
2023-03-18T02:39:16.150Z,1.90
2023-03-18T02:41:58.987Z,1.92
2023-03-18T02:44:44.627Z,1.90
2023-03-18T02:47:49.021Z,2.10
2023-03-18T02:50:32.035Z,1.92
2023-03-18T02:53:15.245Z,2.05
2023-03-18T02:55:58.402Z,2.03
2023-03-18T02:58:41.629Z,2.17
2023-03-18T03:01:26.378Z,1.98
2023-03-18T03:04:09.228Z,1.92
2023-03-18T03:06:52.349Z,2.10
2023-03-18T03:09:45.607Z,2.08
2023-03-18T03:12:28.621Z,1.85
2023-03-18T03:15:13.250Z,2.20
2023-03-18T03:18:02.167Z,2.25
2023-03-18T03:20:44.879Z,1.85
2023-03-18T03:23:27.886Z,2.03
2023-03-18T03:26:10.578Z,2.22
2023-03-18T03:28:53.186Z,2.17
2023-03-18T03:31:36.974Z,2.13
2023-03-18T03:34:22.941Z,2.00
2023-03-18T03:37:05.797Z,2.25
2023-03-18T03:39:49.006Z,2.08
2023-03-18T03:42:31.638Z,2.25
2023-03-18T03:45:14.988Z,2.35
2023-03-18T03:47:58.058Z,2.10
2023-03-18T03:50:42.070Z,2.40
2023-03-18T03:53:25.598Z,2.15
2023-03-18T03:56:09.134Z,2.15
2023-03-18T03:58:51.837Z,1.95
2023-03-18T04:01:35.453Z,1.90
2023-03-18T04:04:18.132Z,2.45
2023-03-18T04:07:03.171Z,2.10
2023-03-18T04:09:46.686Z,2.50
2023-03-18T04:12:29.525Z,2.13
2023-03-18T04:15:16.450Z,2.20
2023-03-18T04:18:06.556Z,2.20
2023-03-18T04:20:49.754Z,2.20
2023-03-18T04:23:56.524Z,2.22
2023-03-18T04:26:39.243Z,2.10
2023-03-18T04:29:22.634Z,2.03
2023-03-18T04:32:05.848Z,2.08
2023-03-18T04:34:50.278Z,2.20
2023-03-18T04:37:37.097Z,2.15
2023-03-18T04:40:22.272Z,2.17
2023-03-18T04:43:05.616Z,2.63
2023-03-18T04:45:49.294Z,2.35
2023-03-18T04:48:32.900Z,2.10
2023-03-18T04:51:18.732Z,2.28
2023-03-18T04:54:02.580Z,2.42
2023-03-18T04:56:48.157Z,2.20
2023-03-18T04:59:30.964Z,2.40
2023-03-18T05:02:16.530Z,2.42
2023-03-18T05:05:00.724Z,2.30
2023-03-18T05:07:43.731Z,2.05
2023-03-18T05:10:29.838Z,2.60
2023-03-18T05:13:13.964Z,2.08
2023-03-18T05:15:57.954Z,2.58
2023-03-18T05:18:41.751Z,2.10
2023-03-18T05:21:25.387Z,2.20
2023-03-18T05:24:08.575Z,2.20
2023-03-18T05:26:55.492Z,2.47
2023-03-18T05:29:44.052Z,2.40
2023-03-18T05:32:34.440Z,2.42
2023-03-18T05:35:20.323Z,2.60
2023-03-18T05:38:05.208Z,2.33
2023-03-18T05:40:48.043Z,2.63
2023-03-18T05:43:38.658Z,2.70
2023-03-18T05:46:22.934Z,2.70
2023-03-18T05:49:24.729Z,2.97
2023-03-18T05:52:25.809Z,2.70
2023-03-18T05:55:14.203Z,3.05
2023-03-18T05:58:00.341Z,2.67
2023-03-18T06:00:44.415Z,3.30
2023-03-18T06:03:29.651Z,3.08
2023-03-18T06:06:12.500Z,3.05
2023-03-18T06:08:56.938Z,3.35
2023-03-18T06:11:40.119Z,3.00
2023-03-18T06:14:23.031Z,2.90
2023-03-18T06:17:06.554Z,3.55
2023-03-18T06:19:50.829Z,3.70
2023-03-18T06:22:34.427Z,3.15
2023-03-18T06:25:18.838Z,3.42
2023-03-18T06:28:01.463Z,4.00
2023-03-18T06:30:46.735Z,4.05
2023-03-18T06:33:29.942Z,3.83
2023-03-18T06:36:16.427Z,3.63
2023-03-18T06:39:02.472Z,3.63
2023-03-18T06:41:46.049Z,3.95
2023-03-18T06:44:50.275Z,4.00
2023-03-18T06:47:36.955Z,4.07
2023-03-18T06:50:20.892Z,4.53
2023-03-18T06:53:05.474Z,4.63
2023-03-18T06:55:49.998Z,4.53
2023-03-18T06:58:35.710Z,5.00
2023-03-18T07:01:22.720Z,4.63
2023-03-18T07:04:09.602Z,4.50
2023-03-18T07:06:52.675Z,4.57
2023-03-18T07:09:36.808Z,4.93
2023-03-18T07:12:19.415Z,4.97
2023-03-18T07:15:02.447Z,4.78
2023-03-18T07:17:45.373Z,4.70
2023-03-18T07:20:28.753Z,4.70
2023-03-18T07:23:11.705Z,4.80
2023-03-18T07:25:55.825Z,5.43
2023-03-18T07:28:38.471Z,5.18
2023-03-18T07:31:22.947Z,4.75
2023-03-18T07:34:05.877Z,4.63
2023-03-18T07:36:48.477Z,4.82
2023-03-18T07:39:31.841Z,5.00
2023-03-18T07:42:15.752Z,4.93
2023-03-18T07:45:01.674Z,4.97
2023-03-18T07:47:46.966Z,4.95
2023-03-18T07:50:29.723Z,4.97
2023-03-18T07:53:12.502Z,5.35
2023-03-18T07:55:55.402Z,4.93
2023-03-18T07:58:39.680Z,4.80
2023-03-18T08:01:22.318Z,5.38
2023-03-18T08:04:06.006Z,5.53
2023-03-18T08:06:49.360Z,4.65
2023-03-18T08:09:32.361Z,5.05
2023-03-18T08:12:18.729Z,5.40
2023-03-18T08:15:03.056Z,5.07
2023-03-18T08:17:45.642Z,5.10
2023-03-18T08:20:28.751Z,5.35
2023-03-18T08:23:11.793Z,5.50
2023-03-18T08:25:54.391Z,5.47
2023-03-18T08:28:37.130Z,4.97
2023-03-18T08:31:21.141Z,5.22
2023-03-18T08:34:03.764Z,5.13
2023-03-18T08:36:46.392Z,5.50
2023-03-18T08:39:28.999Z,5.47
2023-03-18T08:42:12.044Z,5.13
2023-03-18T08:44:54.831Z,5.53
2023-03-18T08:47:38.911Z,5.72
2023-03-18T08:50:21.577Z,4.85
2023-03-18T08:53:05.749Z,5.43
2023-03-18T08:55:48.506Z,5.35
2023-03-18T08:58:31.222Z,5.57
2023-03-18T09:01:14.168Z,5.53
2023-03-18T09:03:59.448Z,5.50
2023-03-18T09:06:42.232Z,5.70
2023-03-18T09:09:37.362Z,5.68
2023-03-18T09:12:25.571Z,5.97
2023-03-18T09:15:10.022Z,6.07
2023-03-18T09:18:09.889Z,5.28
2023-03-18T09:20:54.979Z,5.88
2023-03-18T09:23:37.606Z,5.85
2023-03-18T09:26:20.984Z,5.70
2023-03-18T09:29:03.568Z,5.75
2023-03-18T09:31:46.895Z,5.65
2023-03-18T09:34:29.536Z,5.78
2023-03-18T09:37:14.794Z,5.55
2023-03-18T09:39:57.377Z,5.95
2023-03-18T09:42:47.346Z,5.38
2023-03-18T09:45:32.064Z,5.53
2023-03-18T09:48:27.698Z,5.60
2023-03-18T09:51:14.691Z,5.85
2023-03-18T09:53:59.954Z,5.35
2023-03-18T09:56:42.931Z,5.80
2023-03-18T09:59:26.996Z,5.40
2023-03-18T10:02:18.488Z,5.78
2023-03-18T10:05:03.166Z,5.65
2023-03-18T10:07:50.571Z,5.47
2023-03-18T10:10:37.814Z,5.97
2023-03-18T10:13:22.599Z,5.88
2023-03-18T10:16:07.286Z,5.78
2023-03-18T10:18:50.592Z,5.32
2023-03-18T10:21:39.098Z,6.03
2023-03-18T10:24:29.221Z,5.60
2023-03-18T10:27:19.105Z,6.07
2023-03-18T10:30:04.146Z,5.90
2023-03-18T10:32:52.629Z,6.57
2023-03-18T10:35:39.115Z,5.93
2023-03-18T10:38:24.449Z,5.47
2023-03-18T10:41:14.096Z,5.32
2023-03-18T10:43:58.392Z,4.70
2023-03-18T10:46:42.488Z,4.60
2023-03-18T10:49:26.532Z,5.00
2023-03-18T10:52:16.824Z,4.65
2023-03-18T10:54:59.752Z,5.00
2023-03-18T10:57:42.643Z,5.22
2023-03-18T11:00:29.086Z,4.75
2023-03-18T11:03:18.445Z,4.68
2023-03-18T11:06:04.208Z,4.50
2023-03-18T11:08:48.460Z,4.63
2023-03-18T11:11:33.367Z,4.43
2023-03-18T11:14:18.103Z,5.22
2023-03-18T11:17:03.139Z,4.43
2023-03-18T11:19:48.601Z,4.15
2023-03-18T11:22:32.117Z,4.03
2023-03-18T11:25:16.486Z,3.65
2023-03-18T11:28:00.127Z,3.90
2023-03-18T11:30:46.378Z,3.90
2023-03-18T11:33:32.934Z,3.75
2023-03-18T11:36:18.552Z,4.30
2023-03-18T11:39:03.911Z,3.88
2023-03-18T11:41:47.088Z,4.47
2023-03-18T11:44:30.971Z,4.35
2023-03-18T11:47:14.723Z,4.13
2023-03-18T11:50:06.306Z,4.32
2023-03-18T11:52:55.363Z,4.80
2023-03-18T11:55:40.517Z,4.22
2023-03-18T11:58:41.214Z,4.50
2023-03-18T12:01:30.457Z,4.30
2023-03-18T12:04:45.212Z,4.40
2023-03-18T12:07:49.356Z,5.05
2023-03-18T12:10:35.999Z,4.75
2023-03-18T12:13:26.093Z,5.28
2023-03-18T12:16:10.976Z,4.65
2023-03-18T12:19:02.118Z,4.93
2023-03-18T12:21:55.455Z,5.10
2023-03-18T12:24:54.705Z,4.88
2023-03-18T12:27:43.023Z,5.10
2023-03-18T12:30:35.373Z,4.93
2023-03-18T12:33:25.211Z,4.72
2023-03-18T12:36:14.091Z,4.80
2023-03-18T12:39:13.352Z,4.65
2023-03-18T12:42:01.563Z,5.55
2023-03-18T12:44:54.527Z,4.80
2023-03-18T12:47:38.101Z,4.50
2023-03-18T12:50:21.841Z,4.10
2023-03-18T12:53:06.061Z,4.70
2023-03-18T12:55:50.198Z,4.50
2023-03-18T12:58:37.691Z,3.90
2023-03-18T13:01:25.215Z,3.78
2023-03-18T13:04:11.915Z,4.45
2023-03-18T13:06:57.685Z,4.35
2023-03-18T13:09:43.686Z,4.22
2023-03-18T13:12:28.807Z,4.70
2023-03-18T13:15:16.661Z,4.28
2023-03-18T13:18:01.711Z,4.13
2023-03-18T13:20:44.662Z,3.85
2023-03-18T13:23:39.556Z,3.67
2023-03-18T13:26:26.575Z,2.88
2023-03-18T13:29:16.763Z,3.63
2023-03-18T13:32:03.328Z,3.15
2023-03-18T13:34:58.017Z,3.30
2023-03-18T13:37:51.575Z,2.92
2023-03-18T13:40:39.423Z,3.40
2023-03-18T13:43:24.317Z,3.72
2023-03-18T13:46:15.113Z,3.10
2023-03-18T13:48:58.733Z,3.42
2023-03-18T13:51:53.285Z,3.25
2023-03-18T13:54:38.691Z,3.22
2023-03-18T13:57:34.421Z,3.75
2023-03-18T14:00:25.360Z,3.90
2023-03-18T14:03:19.434Z,3.80
2023-03-18T14:06:20.980Z,3.53
2023-03-18T14:09:23.142Z,3.40
2023-03-18T14:12:19.792Z,3.67
2023-03-18T14:15:05.907Z,3.45
2023-03-18T14:17:49.402Z,3.55
2023-03-18T14:20:39.451Z,3.67
2023-03-18T14:23:35.484Z,4.30
2023-03-18T14:26:23.996Z,4.25
2023-03-18T14:29:17.139Z,4.25
2023-03-18T14:32:01.018Z,4.20
2023-03-18T14:34:55.079Z,4.72
2023-03-18T14:37:54.901Z,4.55
2023-03-18T14:40:40.456Z,4.40
2023-03-18T14:43:26.659Z,4.75
2023-03-18T14:46:17.634Z,4.22
2023-03-18T14:49:00.385Z,4.50
2023-03-18T14:51:43.063Z,4.82
2023-03-18T14:54:27.161Z,4.70
2023-03-18T14:57:10.363Z,4.45
2023-03-18T14:59:54.320Z,4.13
2023-03-18T15:02:38.984Z,4.43
2023-03-18T15:05:22.825Z,4.90
2023-03-18T15:08:10.008Z,4.57
2023-03-18T15:10:53.440Z,4.43
2023-03-18T15:13:36.742Z,4.65
2023-03-18T15:16:21.416Z,4.88
2023-03-18T15:19:05.188Z,5.20
2023-03-18T15:21:48.115Z,4.85
2023-03-18T15:24:30.877Z,5.00
2023-03-18T15:27:14.596Z,4.88
2023-03-18T15:29:57.872Z,5.00
2023-03-18T15:32:46.377Z,5.68
2023-03-18T15:35:31.548Z,6.05
2023-03-18T15:38:16.065Z,7.22
2023-03-18T15:41:01.150Z,7.20
2023-03-18T15:43:44.931Z,7.70
2023-03-18T15:46:30.844Z,7.30
2023-03-18T15:49:14.957Z,6.97
2023-03-18T15:52:01.489Z,6.45
2023-03-18T15:54:44.718Z,7.05
2023-03-18T15:57:31.571Z,6.43
2023-03-18T16:00:14.748Z,6.00
2023-03-18T16:02:57.382Z,6.40
2023-03-18T16:05:41.412Z,6.18
2023-03-18T16:08:24.402Z,6.78
2023-03-18T16:11:08.889Z,7.35
2023-03-18T16:13:51.580Z,7.72
2023-03-18T16:16:36.129Z,6.72
2023-03-18T16:19:24.747Z,7.50
2023-03-18T16:22:09.536Z,6.88
2023-03-18T16:24:52.394Z,7.30
2023-03-18T16:27:37.574Z,7.03
2023-03-18T16:30:22.580Z,7.22
2023-03-18T16:33:07.495Z,6.85
2023-03-18T16:35:52.473Z,7.25
2023-03-18T16:38:36.570Z,7.50
2023-03-18T16:41:19.200Z,7.00
2023-03-18T16:44:01.819Z,6.70
2023-03-18T16:46:46.450Z,6.68
2023-03-18T16:49:30.849Z,7.35
2023-03-18T16:52:14.036Z,7.10
2023-03-18T16:54:58.314Z,7.07
2023-03-18T16:57:41.547Z,6.53
2023-03-18T17:00:25.651Z,6.70
2023-03-18T17:03:12.202Z,16.25
2023-03-18T17:05:54.828Z,24.98
2023-03-18T17:08:37.761Z,15.65
2023-03-18T17:11:22.773Z,10.52
2023-03-18T17:14:05.905Z,10.75
2023-03-18T17:16:48.611Z,10.00
2023-03-18T17:19:31.346Z,8.93
2023-03-18T17:22:18.729Z,8.32
2023-03-18T17:25:02.308Z,7.40
2023-03-18T17:27:47.532Z,6.93
2023-03-18T17:30:33.409Z,7.20
2023-03-18T17:33:24.119Z,7.40
2023-03-18T17:36:07.832Z,8.35
2023-03-18T17:38:53.468Z,7.82
2023-03-18T17:41:36.084Z,7.88
2023-03-18T17:44:29.771Z,7.28
2023-03-18T17:47:13.882Z,7.60
2023-03-18T17:49:56.598Z,7.68
2023-03-18T17:52:39.331Z,9.00
2023-03-18T17:55:23.440Z,7.85
2023-03-18T17:58:12.054Z,8.27
2023-03-18T18:01:00.243Z,7.57
2023-03-18T18:03:43.694Z,8.20
2023-03-18T18:06:29.309Z,8.60
2023-03-18T18:09:14.038Z,9.10
2023-03-18T18:11:56.761Z,9.45
2023-03-18T18:14:39.852Z,9.00
2023-03-18T18:17:24.154Z,8.57
2023-03-18T18:20:07.334Z,8.60
2023-03-18T18:22:51.502Z,9.45
2023-03-18T18:25:35.656Z,9.10
2023-03-18T18:28:20.534Z,10.23
2023-03-18T18:31:04.377Z,11.52
2023-03-18T18:33:49.701Z,11.15
2023-03-18T18:36:32.536Z,10.70
2023-03-18T18:39:15.456Z,10.77
2023-03-18T18:41:58.183Z,10.85
2023-03-18T18:44:40.909Z,10.90
2023-03-18T18:47:23.700Z,11.45
2023-03-18T18:50:08.593Z,9.90
2023-03-18T18:52:51.290Z,10.52
2023-03-18T18:55:34.550Z,10.00
2023-03-18T18:58:18.608Z,12.00
2023-03-18T19:01:01.264Z,12.95
2023-03-18T19:03:44.008Z,13.45
2023-03-18T19:06:29.144Z,12.00
2023-03-18T19:09:16.279Z,12.98
2023-03-18T19:11:59.175Z,12.90
2023-03-18T19:14:42.020Z,11.50
2023-03-18T19:17:25.567Z,11.40
2023-03-18T19:20:14.925Z,12.15
2023-03-18T19:22:59.374Z,11.73
2023-03-18T19:25:42.102Z,12.10
2023-03-18T19:28:47.845Z,13.38
2023-03-18T19:31:35.602Z,15.25
2023-03-18T19:34:19.316Z,14.85
2023-03-18T19:37:02.839Z,15.15
2023-03-18T19:39:47.498Z,15.50
2023-03-18T19:42:30.507Z,17.33
2023-03-18T19:45:14.274Z,15.80
2023-03-18T19:47:57.079Z,15.23
2023-03-18T19:50:39.780Z,14.02
2023-03-18T19:53:25.244Z,13.43
2023-03-18T19:56:16.964Z,14.73
2023-03-18T19:59:00.286Z,13.50
2023-03-18T20:01:43.025Z,12.93
2023-03-18T20:04:27.470Z,13.32
2023-03-18T20:07:10.148Z,12.52
2023-03-18T20:09:53.278Z,12.30
2023-03-18T20:12:38.051Z,11.93
2023-03-18T20:15:21.688Z,11.32
2023-03-18T20:18:04.454Z,11.60
2023-03-18T20:20:49.346Z,11.45
2023-03-18T20:23:33.006Z,11.05
2023-03-18T20:26:16.073Z,10.88
2023-03-18T20:29:00.411Z,10.32
2023-03-18T20:31:43.178Z,11.57
2023-03-18T20:34:26.204Z,11.93
2023-03-18T20:37:15.597Z,10.95
2023-03-18T20:39:58.384Z,11.27
2023-03-18T20:42:41.466Z,11.40
2023-03-18T20:45:26.071Z,11.98
2023-03-18T20:48:08.837Z,10.77
2023-03-18T20:50:52.217Z,11.07
2023-03-18T20:53:34.939Z,10.85
2023-03-18T20:56:19.363Z,11.23
2023-03-18T20:59:04.159Z,10.95
2023-03-18T21:01:48.250Z,11.07
2023-03-18T21:04:31.267Z,11.23
2023-03-18T21:07:14.448Z,11.65
2023-03-18T21:09:57.077Z,12.07
2023-03-18T21:12:40.232Z,11.52
2023-03-18T21:15:24.134Z,12.60
2023-03-18T21:18:08.378Z,12.70
2023-03-18T21:20:51.178Z,11.93
2023-03-18T21:23:34.550Z,13.82
2023-03-18T21:26:17.315Z,13.07
2023-03-18T21:29:00.132Z,12.43
2023-03-18T21:31:43.205Z,12.90
2023-03-18T21:34:27.845Z,11.65
2023-03-18T21:37:14.832Z,11.55
2023-03-18T21:39:57.533Z,11.38
2023-03-18T21:42:41.177Z,11.25
2023-03-18T21:45:24.276Z,11.43
2023-03-18T21:48:09.588Z,11.30
2023-03-18T21:50:54.129Z,11.75
2023-03-18T21:53:36.812Z,10.73
2023-03-18T21:56:19.897Z,10.32
2023-03-18T21:59:02.543Z,10.68
2023-03-18T22:01:45.313Z,10.75
2023-03-18T22:04:29.296Z,10.90
2023-03-18T22:07:14.376Z,10.80
2023-03-18T22:09:57.165Z,10.25
2023-03-18T22:12:41.376Z,10.80
2023-03-18T22:15:45.052Z,9.85
2023-03-18T22:18:27.725Z,11.00
2023-03-18T22:21:16.884Z,10.43
2023-03-18T22:24:00.932Z,11.57
2023-03-18T22:26:43.562Z,11.63
2023-03-18T22:29:26.171Z,10.85
2023-03-18T22:32:10.660Z,10.80
2023-03-18T22:34:53.536Z,10.68
2023-03-18T22:37:36.130Z,9.43
2023-03-18T22:40:21.162Z,10.23
2023-03-18T22:43:03.766Z,10.25
2023-03-18T22:45:46.428Z,9.45
2023-03-18T22:48:29.382Z,9.02
2023-03-18T22:51:18.697Z,8.80
2023-03-18T22:54:01.346Z,8.68
2023-03-18T22:56:45.374Z,8.48
2023-03-18T22:59:28.104Z,8.75
2023-03-18T23:02:14.530Z,8.20
2023-03-18T23:04:57.461Z,7.80
2023-03-18T23:07:40.273Z,8.57
2023-03-18T23:10:23.400Z,8.35
2023-03-18T23:13:13.204Z,8.40
2023-03-18T23:15:55.889Z,7.45
2023-03-18T23:18:38.571Z,7.68
2023-03-18T23:21:22.616Z,7.55
2023-03-18T23:24:05.385Z,8.02
2023-03-18T23:26:48.031Z,8.25
2023-03-18T23:29:31.951Z,8.13
2023-03-18T23:32:14.595Z,7.90
2023-03-18T23:34:57.170Z,8.18
2023-03-18T23:37:39.794Z,8.23
2023-03-18T23:40:22.465Z,9.82
2023-03-18T23:43:05.393Z,9.27
2023-03-18T23:45:49.542Z,8.40
2023-03-18T23:48:32.503Z,8.18
2023-03-18T23:51:15.334Z,8.45
2023-03-18T23:53:57.949Z,8.45
2023-03-18T23:56:40.577Z,7.97
2023-03-18T23:59:23.332Z,7.82
